createdAt,value
2022-09-14T03:01:28.471Z,5.50
2022-09-14T03:03:55.251Z,3.83
2022-09-14T03:06:22.598Z,3.47
2022-09-14T03:08:50.275Z,3.85
2022-09-14T03:11:17.015Z,3.63
2022-09-14T03:13:44.036Z,5.15
2022-09-14T03:16:17.323Z,3.88
2022-09-14T03:18:44.296Z,4.22
2022-09-14T03:21:13.519Z,3.72
2022-09-14T03:23:45.149Z,3.97
2022-09-14T03:26:17.716Z,3.65
2022-09-14T03:28:45.179Z,3.20
2022-09-14T03:31:13.233Z,3.42
2022-09-14T03:33:40.475Z,3.60
2022-09-14T03:36:19.055Z,3.53
2022-09-14T03:38:47.475Z,4.28
2022-09-14T03:41:15.199Z,3.70
2022-09-14T03:43:43.439Z,4.20
2022-09-14T03:46:13.036Z,3.25
2022-09-14T03:48:40.328Z,3.42
2022-09-14T03:51:09.218Z,3.42
2022-09-14T03:53:36.664Z,2.90
2022-09-14T03:56:11.625Z,3.13
2022-09-14T03:58:38.568Z,3.60
2022-09-14T04:01:07.210Z,3.55
2022-09-14T04:03:35.805Z,3.00
2022-09-14T04:06:05.502Z,3.58
2022-09-14T04:08:37.479Z,3.42
2022-09-14T04:11:19.441Z,3.58
2022-09-14T04:13:48.366Z,3.70
2022-09-14T04:16:15.810Z,4.53
2022-09-14T04:18:42.835Z,3.40
2022-09-14T04:21:15.934Z,3.13
2022-09-14T04:24:19.283Z,5.88
2022-09-14T04:26:32.593Z,4.05
2022-09-14T04:28:59.703Z,4.47
2022-09-14T04:31:26.592Z,3.42
2022-09-14T04:33:56.330Z,3.92
2022-09-14T04:36:30.912Z,3.58
2022-09-14T04:39:00.079Z,3.75
2022-09-14T04:41:27.796Z,3.20
2022-09-14T04:43:55.974Z,3.85
2022-09-14T04:46:30.450Z,3.15
2022-09-14T04:48:57.805Z,2.95
2022-09-14T04:51:27.352Z,2.83
2022-09-14T04:53:56.509Z,3.03
2022-09-14T04:56:24.667Z,3.40
2022-09-14T04:58:58.679Z,3.15
2022-09-14T05:01:28.741Z,3.50
2022-09-14T05:03:56.037Z,3.50
2022-09-14T05:06:25.720Z,2.97
2022-09-14T05:08:53.325Z,3.60
2022-09-14T05:11:25.505Z,2.88
2022-09-14T05:16:21.866Z,3.53
2022-09-14T05:18:49.798Z,3.53
2022-09-14T05:21:18.922Z,3.85
2022-09-14T05:23:46.667Z,3.20
2022-09-14T05:26:14.290Z,2.90
2022-09-14T05:28:41.335Z,3.33
2022-09-14T05:31:10.199Z,3.10
2022-09-14T05:33:37.135Z,3.10
2022-09-14T05:36:06.105Z,3.10
2022-09-14T05:38:35.097Z,2.80
2022-09-14T05:41:02.304Z,3.42
2022-09-14T05:43:30.724Z,3.33
2022-09-14T05:46:02.542Z,4.43
2022-09-14T05:48:36.291Z,3.08
2022-09-14T05:51:10.261Z,3.50
2022-09-14T05:53:36.996Z,3.20
2022-09-14T05:56:09.331Z,2.83
2022-09-14T05:58:37.412Z,3.00
2022-09-14T06:01:07.857Z,3.00
2022-09-14T06:03:34.713Z,3.03
2022-09-14T06:06:01.923Z,3.00
2022-09-14T06:08:29.094Z,2.53
2022-09-14T06:10:55.721Z,2.88
2022-09-14T06:13:23.466Z,1.92
2022-09-14T06:15:50.296Z,2.17
2022-09-14T06:18:17.271Z,2.40
2022-09-14T06:20:52.230Z,2.38
2022-09-14T06:23:19.036Z,3.50
2022-09-14T06:25:45.928Z,3.00
2022-09-14T06:28:12.864Z,2.75
2022-09-14T06:30:44.046Z,3.85
2022-09-14T06:33:10.812Z,3.30
2022-09-14T06:35:37.409Z,3.45
2022-09-14T06:38:04.160Z,3.08
2022-09-14T06:40:30.892Z,3.38
2022-09-14T06:43:02.154Z,3.35
2022-09-14T06:45:36.788Z,3.83
2022-09-14T06:48:03.395Z,3.80
2022-09-14T06:50:29.967Z,3.75
2022-09-14T06:52:56.565Z,3.13
2022-09-14T06:55:23.131Z,3.38
2022-09-14T06:57:49.741Z,4.55
2022-09-14T07:00:16.833Z,4.07
2022-09-14T07:02:43.803Z,3.20
2022-09-14T07:05:10.656Z,3.13
2022-09-14T07:07:37.253Z,3.08
2022-09-14T07:10:04.192Z,6.30
2022-09-14T07:12:30.781Z,3.33
2022-09-14T07:14:57.591Z,3.47
2022-09-14T07:17:24.225Z,2.53
2022-09-14T07:19:51.856Z,2.30
2022-09-14T07:22:18.467Z,1.98
2022-09-14T07:24:45.096Z,1.60
2022-09-14T07:27:11.711Z,2.05
2022-09-14T07:29:38.595Z,1.90
2022-09-14T07:32:05.424Z,1.92
2022-09-14T07:34:32.648Z,1.13
2022-09-14T07:36:59.535Z,1.48
2022-09-14T07:39:26.297Z,1.33
2022-09-14T07:41:53.227Z,1.10
2022-09-14T07:44:19.823Z,1.15
2022-09-14T07:46:47.181Z,1.02
2022-09-14T07:49:15.592Z,0.80
2022-09-14T07:51:42.717Z,0.77
2022-09-14T07:54:12.431Z,0.90
2022-09-14T07:56:39.869Z,0.70
2022-09-14T07:59:31.307Z,0.73
2022-09-14T08:01:53.440Z,1.00
2022-09-14T08:04:20.867Z,0.80
2022-09-14T08:06:47.516Z,0.88
2022-09-14T08:09:14.360Z,0.93
2022-09-14T08:11:40.984Z,0.90
2022-09-14T08:14:10.378Z,1.10
2022-09-14T08:16:41.360Z,1.23
2022-09-14T08:19:12.847Z,1.10
2022-09-14T08:21:44.113Z,1.13
2022-09-14T08:24:18.865Z,1.08
2022-09-14T08:26:46.958Z,0.88
2022-09-14T08:29:15.248Z,0.80
2022-09-14T08:31:43.333Z,0.90
2022-09-14T08:34:10.219Z,0.90
2022-09-14T08:36:39.263Z,0.98
2022-09-14T08:39:10.535Z,0.70
2022-09-14T08:41:53.477Z,0.75
2022-09-14T08:44:37.105Z,0.35
2022-09-14T08:47:32.347Z,0.70
2022-09-14T08:49:58.883Z,0.50
2022-09-14T08:52:34.411Z,0.68
2022-09-14T08:55:12.171Z,0.30
2022-09-14T08:57:44.924Z,0.40
2022-09-14T09:00:17.704Z,0.60
2022-09-14T09:03:00.649Z,0.47
2022-09-14T09:05:42.072Z,0.70
2022-09-14T09:08:36.697Z,0.30
2022-09-14T09:11:07.277Z,0.60
2022-09-14T09:13:38.352Z,0.43
2022-09-14T09:16:09.306Z,0.50
2022-09-14T09:18:49.769Z,0.40
2022-09-14T09:21:28.825Z,0.70
2022-09-14T09:24:09.552Z,0.32
2022-09-14T09:26:36.169Z,0.70
2022-09-14T09:29:05.840Z,0.60
2022-09-14T09:31:43.784Z,0.80
2022-09-14T09:34:16.324Z,0.82
2022-09-14T09:36:47.925Z,0.40
2022-09-14T09:39:15.733Z,0.57
2022-09-14T09:41:51.068Z,0.70
2022-09-14T09:44:17.716Z,0.80
2022-09-14T09:46:51.850Z,0.45
2022-09-14T09:49:24.431Z,0.50
2022-09-14T09:51:52.496Z,1.63
2022-09-14T09:54:29.949Z,1.88
2022-09-14T09:57:03.088Z,1.80
2022-09-14T09:59:39.590Z,0.85
2022-09-14T10:02:32.046Z,0.68
2022-09-14T10:05:07.224Z,1.20
2022-09-14T10:07:40.515Z,0.45
2022-09-14T10:10:13.732Z,0.52
2022-09-14T10:12:47.642Z,0.80
2022-09-14T10:15:22.911Z,0.73
2022-09-14T10:18:01.612Z,0.30
2022-09-14T10:20:28.384Z,0.52
2022-09-14T10:22:55.028Z,0.30
2022-09-14T10:25:26.368Z,0.43
2022-09-14T10:27:56.104Z,0.52
2022-09-14T10:30:25.502Z,0.63
2022-09-14T10:33:02.334Z,0.95
2022-09-14T10:35:41.409Z,0.50
2022-09-14T10:38:17.725Z,0.32
2022-09-14T10:40:52.656Z,0.47
2022-09-14T10:44:00.479Z,0.63
2022-09-14T10:46:34.580Z,0.52
2022-09-14T10:49:37.925Z,0.47
2022-09-14T10:52:19.615Z,0.57
2022-09-14T10:55:19.953Z,0.50
2022-09-14T10:58:07.411Z,0.30
2022-09-14T11:00:46.184Z,0.57
2022-09-14T11:03:28.400Z,1.13
2022-09-14T11:06:29.007Z,0.60
2022-09-14T11:09:02.687Z,0.57
2022-09-14T11:12:11.055Z,0.73
2022-09-14T11:14:43.828Z,0.75
2022-09-14T11:17:23.799Z,0.70
2022-09-14T11:20:12.053Z,0.70
2022-09-14T11:22:50.379Z,1.30
2022-09-14T11:25:40.880Z,0.90
2022-09-14T11:28:16.172Z,1.20
2022-09-14T11:30:50.187Z,1.35
2022-09-14T11:33:31.521Z,1.05
2022-09-14T11:36:07.344Z,1.67
2022-09-14T11:38:46.593Z,1.50
2022-09-14T11:41:20.169Z,1.85
2022-09-14T11:44:00.063Z,1.70
2022-09-14T11:46:31.957Z,1.40
2022-09-14T11:49:17.258Z,1.95
2022-09-14T11:51:51.562Z,1.75
2022-09-14T11:54:21.333Z,3.13
2022-09-14T11:57:01.192Z,1.80
2022-09-14T11:59:50.410Z,2.05
2022-09-14T12:02:23.194Z,2.58
2022-09-14T12:05:05.375Z,2.10
2022-09-14T12:10:18.001Z,2.75
2022-09-14T12:13:05.896Z,2.13
2022-09-14T12:15:35.767Z,2.20
2022-09-14T12:18:05.201Z,2.78
2022-09-14T12:20:37.749Z,1.85
2022-09-14T12:23:20.709Z,3.08
2022-09-14T12:26:06.129Z,2.50
2022-09-14T12:28:35.564Z,2.20
2022-09-14T12:31:05.177Z,4.28
2022-09-14T12:33:32.091Z,2.45
2022-09-14T12:36:05.523Z,2.45
2022-09-14T12:38:32.353Z,3.05
2022-09-14T12:41:02.594Z,3.42
2022-09-14T12:43:35.151Z,2.67
2022-09-14T12:46:10.908Z,2.08
2022-09-14T12:48:47.965Z,3.00
2022-09-14T12:51:14.503Z,2.40
2022-09-14T12:53:43.836Z,2.00
2022-09-14T12:56:22.293Z,3.22
2022-09-14T12:58:59.886Z,2.60
2022-09-14T13:01:37.587Z,3.55
2022-09-14T13:04:15.389Z,3.00
2022-09-14T13:06:47.692Z,2.85
2022-09-14T13:09:21.939Z,2.22
2022-09-14T13:11:58.339Z,2.58
2022-09-14T13:14:32.022Z,2.80
2022-09-14T13:17:04.614Z,2.80
2022-09-14T13:19:34.291Z,2.42
2022-09-14T13:22:02.485Z,2.20
2022-09-14T13:24:31.313Z,2.85
2022-09-14T13:27:01.010Z,2.50
2022-09-14T13:29:28.609Z,2.35
2022-09-14T13:32:03.002Z,2.83
2022-09-14T13:34:34.764Z,2.47
2022-09-14T13:37:02.658Z,2.50
2022-09-14T13:39:34.614Z,2.78
2022-09-14T13:42:04.016Z,3.47
2022-09-14T13:44:45.450Z,2.22
2022-09-14T13:47:15.636Z,2.47
2022-09-14T13:49:44.292Z,2.85
2022-09-14T13:52:25.915Z,2.40
2022-09-14T13:55:23.729Z,1.70
2022-09-14T13:58:09.416Z,1.80
2022-09-14T14:00:57.213Z,1.92
2022-09-14T14:03:28.694Z,3.38
2022-09-14T14:05:55.759Z,2.50
2022-09-14T14:08:35.532Z,2.30
2022-09-14T14:11:05.975Z,1.80
2022-09-14T14:13:35.772Z,1.90
2022-09-14T14:16:26.618Z,1.85
2022-09-14T14:18:55.015Z,2.05
2022-09-14T14:21:21.686Z,2.30
2022-09-14T14:24:12.207Z,2.67
2022-09-14T14:26:47.231Z,2.53
2022-09-14T14:29:16.235Z,1.83
2022-09-14T14:31:43.096Z,2.08
2022-09-14T14:34:23.068Z,2.38
2022-09-14T14:36:50.504Z,2.30
2022-09-14T14:39:19.760Z,2.10
2022-09-14T14:41:47.694Z,2.42
2022-09-14T14:44:28.237Z,2.25
2022-09-14T14:46:56.503Z,1.90
2022-09-14T14:49:23.882Z,2.25
2022-09-14T14:51:50.564Z,1.88
2022-09-14T14:54:18.808Z,2.92
2022-09-14T14:56:50.749Z,2.60
2022-09-14T14:59:20.304Z,2.38
2022-09-14T15:01:51.175Z,2.70
2022-09-14T15:06:47.301Z,2.08
2022-09-14T15:09:25.467Z,3.20
2022-09-14T15:11:54.495Z,2.08
2022-09-14T15:14:28.425Z,2.53
2022-09-14T15:16:59.937Z,2.25
2022-09-14T15:19:27.004Z,1.20
2022-09-14T15:21:57.282Z,3.45
2022-09-14T15:24:26.967Z,2.97
2022-09-14T15:26:54.376Z,3.22
2022-09-14T15:29:21.035Z,1.70
2022-09-14T15:31:47.830Z,2.00
2022-09-14T15:34:14.569Z,1.92
2022-09-14T15:36:47.759Z,2.05
2022-09-14T15:39:15.104Z,2.85
2022-09-14T15:41:42.539Z,2.05
2022-09-14T15:44:09.615Z,2.35
2022-09-14T15:46:36.600Z,2.70
2022-09-14T15:49:13.332Z,3.10
2022-09-14T15:51:43.715Z,3.05
2022-09-14T15:54:11.082Z,2.72
2022-09-14T15:56:37.965Z,2.67
2022-09-14T15:59:05.308Z,2.42
2022-09-14T16:01:32.482Z,2.75
2022-09-14T16:04:01.368Z,3.63
2022-09-14T16:06:29.022Z,2.75
2022-09-14T16:08:55.909Z,3.10
2022-09-14T16:11:23.906Z,1.75
2022-09-14T16:13:51.317Z,2.63
2022-09-14T16:16:20.374Z,2.80
2022-09-14T16:18:49.870Z,2.40
2022-09-14T16:21:22.717Z,2.35
2022-09-14T16:23:59.552Z,1.80
2022-09-14T16:26:32.302Z,1.95
2022-09-14T16:28:59.394Z,1.77
2022-09-14T16:31:32.970Z,2.20
2022-09-14T16:34:06.098Z,1.85
2022-09-14T16:36:35.148Z,2.53
2022-09-14T16:39:09.460Z,2.67
2022-09-14T16:41:38.151Z,3.15
2022-09-14T16:44:05.618Z,1.85
2022-09-14T16:46:33.548Z,2.95
2022-09-14T16:49:00.497Z,2.00
2022-09-14T16:51:30.337Z,2.00
2022-09-14T16:53:59.035Z,1.83
2022-09-14T16:56:28.349Z,2.50
2022-09-14T16:58:56.160Z,1.83
2022-09-14T17:01:25.551Z,1.58
2022-09-14T17:03:55.327Z,2.42
2022-09-14T17:06:29.324Z,2.58
2022-09-14T17:09:02.611Z,1.50
2022-09-14T17:11:31.892Z,1.42
2022-09-14T17:13:58.934Z,1.30
2022-09-14T17:16:27.546Z,1.85
2022-09-14T17:18:57.806Z,1.73
2022-09-14T17:21:27.615Z,1.70
2022-09-14T17:23:54.547Z,1.77
2022-09-14T17:26:22.674Z,2.67
2022-09-14T17:28:51.509Z,1.42
2022-09-14T17:31:23.359Z,1.48
2022-09-14T17:33:50.105Z,1.60
2022-09-14T17:36:18.025Z,2.28
2022-09-14T17:38:45.394Z,4.35
2022-09-14T17:41:18.549Z,2.58
2022-09-14T17:43:49.757Z,2.33
2022-09-14T17:46:17.420Z,8.43
2022-09-14T17:48:44.082Z,5.90
2022-09-14T17:51:14.524Z,65.13
2022-09-14T17:53:43.588Z,44.08
2022-09-14T17:56:12.190Z,27.65
2022-09-14T17:58:39.663Z,54.92
2022-09-14T18:01:24.673Z,7.22
2022-09-14T18:03:54.268Z,8.30
2022-09-14T18:06:23.854Z,3.20
2022-09-14T18:08:55.689Z,4.97
2022-09-14T18:11:22.929Z,2.83
2022-09-14T18:13:51.217Z,4.43
2022-09-14T18:16:19.853Z,5.90
2022-09-14T18:18:46.978Z,2.38
2022-09-14T18:21:15.002Z,4.38
2022-09-14T18:23:43.671Z,2.00
2022-09-14T18:26:10.352Z,3.50
2022-09-14T18:28:37.058Z,2.38
2022-09-14T18:31:09.991Z,5.30
2022-09-14T18:33:37.888Z,3.42
2022-09-14T18:36:06.256Z,2.00
2022-09-14T18:38:33.295Z,3.58
2022-09-14T18:41:04.977Z,2.83
2022-09-14T18:43:31.767Z,1.88
2022-09-14T18:45:58.705Z,3.10
2022-09-14T18:48:25.389Z,2.20
2022-09-14T18:50:52.042Z,2.40
2022-09-14T18:53:18.944Z,2.22
2022-09-14T18:55:46.286Z,2.58
2022-09-14T18:58:12.915Z,3.25
2022-09-14T19:00:45.904Z,2.65
2022-09-14T19:03:12.964Z,2.42
2022-09-14T19:05:43.880Z,2.80
2022-09-14T19:08:13.568Z,2.35
2022-09-14T19:10:40.328Z,3.13
2022-09-14T19:13:07.394Z,3.78
2022-09-14T19:15:34.194Z,3.92
2022-09-14T19:18:00.945Z,3.60
2022-09-14T19:20:43.191Z,3.60
2022-09-14T19:23:14.172Z,2.58
2022-09-14T19:25:40.838Z,2.83
2022-09-14T19:28:07.848Z,3.05
2022-09-14T19:30:36.444Z,3.03
2022-09-14T19:33:03.120Z,2.88
2022-09-14T19:35:30.460Z,4.38
2022-09-14T19:37:58.233Z,4.57
2022-09-14T19:40:24.959Z,3.47
2022-09-14T19:42:52.021Z,3.25
2022-09-14T19:45:19.411Z,2.72
2022-09-14T19:47:46.067Z,3.72
2022-09-14T19:50:12.727Z,3.08
2022-09-14T19:52:39.512Z,3.47
2022-09-14T19:55:06.514Z,3.13
2022-09-14T19:57:34.226Z,3.47
2022-09-14T20:00:01.087Z,3.22
2022-09-14T20:02:28.141Z,3.50
2022-09-14T20:04:55.413Z,3.15
2022-09-14T20:07:22.026Z,2.88
2022-09-14T20:09:48.838Z,2.33
2022-09-14T20:12:15.764Z,2.45
2022-09-14T20:14:42.566Z,2.13
2022-09-14T20:17:09.206Z,2.20
2022-09-14T20:19:36.549Z,2.70
2022-09-14T20:22:03.290Z,2.10
2022-09-14T20:24:31.668Z,2.85
2022-09-14T20:27:00.592Z,2.60
2022-09-14T20:29:30.630Z,2.63
2022-09-14T20:31:58.216Z,2.03
2022-09-14T20:34:25.104Z,2.40
2022-09-14T20:36:53.313Z,2.50
2022-09-14T20:39:22.106Z,2.42
2022-09-14T20:41:49.216Z,2.17
2022-09-14T20:44:16.984Z,1.98
2022-09-14T20:46:44.605Z,2.17
2022-09-14T20:49:13.644Z,1.70
2022-09-14T20:51:41.207Z,2.35
2022-09-14T20:54:11.817Z,3.03
2022-09-14T20:56:39.114Z,2.50
2022-09-14T20:59:07.594Z,1.80
2022-09-14T21:01:36.047Z,2.30
2022-09-14T21:04:05.172Z,3.10
2022-09-14T21:06:31.990Z,1.83
2022-09-14T21:09:01.018Z,2.22
2022-09-14T21:11:28.388Z,2.65
2022-09-14T21:13:57.544Z,2.00
2022-09-14T21:16:28.250Z,1.85
2022-09-14T21:18:58.135Z,1.48
2022-09-14T21:21:26.711Z,2.05
2022-09-14T21:23:55.896Z,1.98
2022-09-14T21:26:23.217Z,2.17
2022-09-14T21:28:55.289Z,1.85
2022-09-14T21:31:22.291Z,1.85
2022-09-14T21:33:51.587Z,1.75
2022-09-14T21:36:24.306Z,2.53
2022-09-14T21:38:56.019Z,3.00
2022-09-14T21:41:25.196Z,2.67
2022-09-14T21:43:51.954Z,1.63
2022-09-14T21:46:18.955Z,2.25
2022-09-14T21:48:45.907Z,1.42
2022-09-14T21:51:32.631Z,2.05
2022-09-14T21:54:03.427Z,1.58
2022-09-14T21:56:33.102Z,1.42
2022-09-14T21:59:07.650Z,1.45
2022-09-14T22:01:34.718Z,1.23
2022-09-14T22:04:02.258Z,1.30
2022-09-14T22:06:30.322Z,1.10
2022-09-14T22:09:00.194Z,1.80
2022-09-14T22:11:32.717Z,1.05
2022-09-14T22:14:13.397Z,1.30
2022-09-14T22:16:40.867Z,1.95
2022-09-14T22:19:13.872Z,1.50
2022-09-14T22:21:40.527Z,1.58
2022-09-14T22:24:10.770Z,1.67
2022-09-14T22:26:39.639Z,1.48
2022-09-14T22:29:08.864Z,1.50
2022-09-14T22:31:39.714Z,1.10
2022-09-14T22:34:07.028Z,1.25
2022-09-14T22:36:35.465Z,1.38
2022-09-14T22:39:03.285Z,1.77
2022-09-14T22:41:30.252Z,1.50
2022-09-14T22:43:57.113Z,1.60
2022-09-14T22:46:24.755Z,2.47
2022-09-14T22:48:52.379Z,1.23
2022-09-14T22:51:22.431Z,1.55
2022-09-14T22:53:49.996Z,1.60
2022-09-14T22:56:25.311Z,1.83
2022-09-14T22:58:52.638Z,1.80
2022-09-14T23:01:22.877Z,1.90
2022-09-14T23:03:53.858Z,1.77
2022-09-14T23:06:20.480Z,1.50
2022-09-14T23:08:47.297Z,1.25
2022-09-14T23:11:13.970Z,2.90
2022-09-14T23:13:42.166Z,1.38
2022-09-14T23:16:15.291Z,1.92
2022-09-14T23:18:42.352Z,1.58
2022-09-14T23:21:09.532Z,1.23
2022-09-14T23:23:38.141Z,1.40
2022-09-14T23:26:07.028Z,1.50
2022-09-14T23:28:33.742Z,1.48
2022-09-14T23:31:00.949Z,1.30
2022-09-14T23:33:28.855Z,1.20
2022-09-14T23:35:56.139Z,0.85
2022-09-14T23:38:23.450Z,0.95
2022-09-14T23:40:50.321Z,1.52
2022-09-14T23:43:18.259Z,1.05
2022-09-14T23:45:46.288Z,1.00
2022-09-14T23:48:13.986Z,0.80
2022-09-14T23:50:40.763Z,0.73
2022-09-14T23:53:07.912Z,0.90
2022-09-14T23:55:34.602Z,1.02
2022-09-14T23:58:01.252Z,1.50
